Time;durP1;ratioP1;P1;durP2;ratioP2;P2;SDS_P1;SDS_P2;PMS_P1;PMS_P2;Temp;Humidity;BMP_temperature;BMP_pressure;BME280_temperature;BME280_humidity;BME280_pressure;Samples;Min_cycle;Max_cycle;Signal;HPM_P1;HPM_P2
2023/03/11 00:01:23;;;;;;;59.60;1.30;;;3.30;99.90;;;;;;5010577;28;20207;-70
2023/03/11 00:03:49;;;;;;;57.30;1.70;;;3.30;99.90;;;;;;5010462;28;20418;-70
2023/03/11 00:06:15;;;;;;;56.40;1.60;;;3.20;99.90;;;;;;5011079;28;20422;-71
2023/03/11 00:08:41;;;;;;;62.13;1.97;;;3.10;99.90;;;;;;5010630;28;20203;-70
2023/03/11 00:11:06;;;;;;;58.83;1.47;;;3.00;99.90;;;;;;5010262;28;20211;-70
2023/03/11 00:13:32;;;;;;;59.57;1.73;;;3.00;99.90;;;;;;5018950;28;20183;-70
2023/03/11 00:15:59;;;;;;;56.40;1.53;;;3.00;99.90;;;;;;5010448;28;20201;-71
2023/03/11 00:18:26;;;;;;;55.03;1.50;;;2.90;99.90;;;;;;5010971;28;20177;-71
2023/03/11 00:20:53;;;;;;;52.40;1.17;;;2.90;99.90;;;;;;5009823;28;20459;-70
2023/03/11 00:23:19;;;;;;;60.47;1.57;;;2.90;99.90;;;;;;5010673;28;20429;-70
2023/03/11 00:25:45;;;;;;;60.43;1.90;;;2.90;99.90;;;;;;5010430;28;20526;-71
2023/03/11 00:28:12;;;;;;;58.50;1.57;;;2.90;99.90;;;;;;5011025;28;20191;-69
2023/03/11 00:30:39;;;;;;;58.33;1.63;;;2.90;99.90;;;;;;5009700;28;20516;-70
2023/03/11 00:33:06;;;;;;;56.37;1.83;;;2.90;99.90;;;;;;5010736;28;20409;-71
2023/03/11 00:35:33;;;;;;;53.70;1.23;;;2.90;99.90;;;;;;5010993;28;20497;-71
2023/03/11 00:38:01;;;;;;;56.43;2.27;;;2.90;99.90;;;;;;5010282;28;20429;-70
2023/03/11 00:40:30;;;;;;;55.57;1.40;;;2.80;99.90;;;;;;5010446;28;20465;-68
2023/03/11 00:42:56;;;;;;;54.37;1.70;;;2.90;99.90;;;;;;5010091;28;20431;-69
2023/03/11 00:45:21;;;;;;;64.00;2.00;;;2.80;99.90;;;;;;5014749;28;20437;-71
2023/03/11 00:47:47;;;;;;;54.90;1.70;;;2.80;99.90;;;;;;5014875;28;20193;-71
2023/03/11 00:50:20;;;;;;;55.33;1.43;;;2.80;99.90;;;;;;5014700;28;20191;-71
2023/03/11 00:52:48;;;;;;;52.17;1.40;;;2.80;99.90;;;;;;5013491;28;20223;-71
2023/03/11 00:55:16;;;;;;;52.47;1.63;;;2.80;99.90;;;;;;5014051;28;20781;-71
2023/03/11 00:57:42;;;;;;;52.30;1.97;;;2.80;99.90;;;;;;5013276;28;20428;-70
2023/03/11 01:00:11;;;;;;;52.70;1.97;;;2.80;99.90;;;;;;5013450;28;20916;-69
2023/03/11 01:02:37;;;;;;;51.17;1.93;;;2.80;99.90;;;;;;5013280;28;20868;-69
2023/03/11 01:05:04;;;;;;;51.07;2.00;;;2.70;99.90;;;;;;4997666;28;20426;-70
2023/03/11 01:07:30;;;;;;;50.07;1.83;;;2.70;99.90;;;;;;5013531;28;20543;-71
2023/03/11 01:09:56;;;;;;;47.67;1.90;;;2.70;99.90;;;;;;5012993;28;20440;-70
2023/03/11 01:12:21;;;;;;;47.60;2.20;;;2.70;99.90;;;;;;5013051;28;20469;-70
2023/03/11 01:14:47;;;;;;;47.10;2.50;;;2.80;99.90;;;;;;5012811;28;20189;-71
2023/03/11 01:17:12;;;;;;;45.60;2.13;;;2.80;99.90;;;;;;5013335;28;20551;-71
2023/03/11 01:19:38;;;;;;;42.37;1.60;;;2.70;99.90;;;;;;5013215;28;20633;-70
2023/03/11 01:22:03;;;;;;;44.40;1.97;;;2.70;99.90;;;;;;5012445;28;20733;-71
2023/03/11 01:24:29;;;;;;;42.03;1.70;;;2.70;99.90;;;;;;5013241;28;20675;-71
2023/03/11 01:26:54;;;;;;;43.17;1.77;;;2.60;99.90;;;;;;5012864;28;20221;-70
2023/03/11 01:29:20;;;;;;;42.03;1.50;;;2.60;99.90;;;;;;5013501;28;20194;-70
2023/03/11 01:31:45;;;;;;;42.60;1.67;;;2.60;99.90;;;;;;5012223;28;20270;-70
2023/03/11 01:34:11;;;;;;;40.90;1.40;;;2.50;99.90;;;;;;5013239;28;20191;-72
2023/03/11 01:36:37;;;;;;;40.50;1.47;;;2.50;99.90;;;;;;5013456;28;20190;-72
2023/03/11 01:39:03;;;;;;;41.57;1.53;;;2.50;99.90;;;;;;5013134;28;20191;-70
2023/03/11 01:41:28;;;;;;;39.67;1.70;;;2.50;99.90;;;;;;5012666;28;20207;-71
2023/03/11 01:43:54;;;;;;;38.80;1.70;;;2.50;99.90;;;;;;5012306;28;20216;-71
2023/03/11 01:46:24;;;;;;;40.97;1.93;;;2.40;99.90;;;;;;5012855;28;20661;-71
2023/03/11 01:48:57;;;;;;;37.10;1.30;;;2.40;99.90;;;;;;5012144;28;20198;-72
2023/03/11 01:51:36;;;;;;;40.23;2.03;;;2.40;99.90;;;;;;5012232;28;20458;-71
2023/03/11 01:54:06;;;;;;;38.30;1.60;;;2.30;99.90;;;;;;5012069;28;20443;-72
2023/03/11 01:56:34;;;;;;;37.33;1.30;;;2.20;99.90;;;;;;5012025;28;20457;-71
2023/03/11 01:58:59;;;;;;;54.47;2.73;;;2.20;99.90;;;;;;5011924;28;20425;-70
2023/03/11 03:32:02;;;;;;;26.80;1.20;;;0.90;99.90;;;;;;5357378;22;20543;-70
2023/03/11 03:34:28;;;;;;;26.67;1.33;;;0.80;99.90;;;;;;5002476;28;20435;-72
2023/03/11 03:36:53;;;;;;;26.93;1.30;;;0.80;99.90;;;;;;5006832;28;20199;-71
2023/03/11 03:39:19;;;;;;;24.63;1.00;;;0.80;99.90;;;;;;5006446;28;20265;-72
2023/03/11 03:41:44;;;;;;;24.47;1.10;;;0.80;99.90;;;;;;4991011;28;20221;-74
2023/03/11 03:44:10;;;;;;;24.77;1.50;;;0.70;99.90;;;;;;4990588;28;20192;-71
2023/03/11 03:46:37;;;;;;;25.10;2.30;;;0.70;99.90;;;;;;4990950;28;20192;-72
2023/03/11 03:49:02;;;;;;;61.27;1.60;;;0.60;99.90;;;;;;4990848;28;20809;-71
2023/03/11 03:51:28;;;;;;;61.00;1.87;;;0.70;99.90;;;;;;4990734;28;20485;-72
2023/03/11 03:53:53;;;;;;;56.77;1.77;;;0.60;99.90;;;;;;4990788;28;20665;-72
2023/03/11 03:56:19;;;;;;;57.47;1.80;;;0.60;99.90;;;;;;4991029;28;20187;-73
2023/03/11 03:58:44;;;;;;;52.50;1.20;;;0.60;99.90;;;;;;4991055;28;20193;-72
2023/03/11 04:01:11;;;;;;;51.37;1.20;;;0.50;99.90;;;;;;4989982;28;20586;-73
2023/03/11 04:03:38;;;;;;;53.57;1.17;;;0.50;99.90;;;;;;4992544;28;20196;-73
2023/03/11 04:06:16;;;;;;;49.87;1.20;;;0.50;99.90;;;;;;4991007;28;20426;-71
2023/03/11 04:08:41;;;;;;;52.27;1.47;;;0.50;99.90;;;;;;4991044;28;20424;-71
2023/03/11 04:11:07;;;;;;;48.00;1.10;;;0.50;99.90;;;;;;4990327;28;23146;-71
2023/03/11 04:13:33;;;;;;;44.50;1.23;;;0.60;99.90;;;;;;4989510;28;20446;-71
2023/03/11 04:15:58;;;;;;;43.13;1.40;;;0.60;99.90;;;;;;4990476;28;20568;-72
2023/03/11 04:18:24;;;;;;;43.90;1.33;;;0.60;99.90;;;;;;4991570;28;20203;-71
2023/03/11 04:20:49;;;;;;;44.67;1.53;;;0.60;99.90;;;;;;4994013;28;20221;-71
2023/03/11 04:23:15;;;;;;;41.50;1.40;;;0.60;99.90;;;;;;4995084;28;20191;-72
2023/03/11 04:25:41;;;;;;;38.93;1.03;;;0.60;99.90;;;;;;4994802;28;20200;-72
2023/03/11 04:28:06;;;;;;;40.23;1.33;;;0.60;99.90;;;;;;4994161;28;20455;-73
2023/03/11 04:30:32;;;;;;;38.57;1.63;;;0.60;99.90;;;;;;4995414;28;20626;-73
2023/03/11 04:32:58;;;;;;;38.27;1.33;;;0.60;99.90;;;;;;4994413;28;20191;-72
2023/03/11 04:35:23;;;;;;;54.87;1.37;;;0.50;99.90;;;;;;4995367;28;20228;-73
2023/03/11 04:37:49;;;;;;;47.03;1.40;;;0.50;99.90;;;;;;4994446;28;20310;-72
2023/03/11 04:40:14;;;;;;;39.07;1.33;;;0.40;99.90;;;;;;4994464;28;20197;-72
2023/03/11 04:42:40;;;;;;;34.27;1.20;;;0.40;99.90;;;;;;4994681;28;20221;-72
2023/03/11 04:45:06;;;;;;;37.17;1.63;;;0.30;99.90;;;;;;4993832;28;20287;-71
2023/03/11 04:47:32;;;;;;;30.77;1.37;;;0.30;99.90;;;;;;4994155;28;20209;-72
2023/03/11 04:49:57;;;;;;;32.13;1.67;;;0.30;99.90;;;;;;4993804;28;20489;-72
2023/03/11 04:52:23;;;;;;;44.27;1.90;;;0.20;99.90;;;;;;4994137;28;20626;-71
2023/03/11 04:54:48;;;;;;;43.20;1.50;;;0.20;99.90;;;;;;4994146;28;20271;-72
2023/03/11 04:57:14;;;;;;;37.27;1.47;;;0.20;99.90;;;;;;4993527;28;20200;-72
2023/03/11 04:59:39;;;;;;;33.77;1.43;;;0.10;99.90;;;;;;4994027;28;20204;-72
2023/03/11 05:02:05;;;;;;;45.77;1.40;;;0.10;99.90;;;;;;4993395;28;20230;-74
2023/03/11 05:04:30;;;;;;;33.17;1.23;;;0.10;99.90;;;;;;4994200;28;20216;-71
2023/03/11 05:06:56;;;;;;;33.20;1.30;;;0.10;99.90;;;;;;4993547;28;20205;-72
2023/03/11 05:09:21;;;;;;;29.40;1.50;;;0.10;99.90;;;;;;4993817;28;20302;-71
2023/03/11 05:11:47;;;;;;;29.10;1.50;;;0.10;99.90;;;;;;4993246;28;20228;-71
2023/03/11 05:14:12;;;;;;;45.37;1.70;;;0.10;99.90;;;;;;4993247;28;20194;-72
2023/03/11 05:16:38;;;;;;;30.63;1.70;;;0.10;99.90;;;;;;4993721;28;20279;-71
2023/03/11 05:19:29;;;;;;;23.60;1.00;;;0.10;99.90;;;;;;4993273;28;20257;-72
2023/03/11 05:21:49;;;;;;;28.27;1.27;;;0.10;99.90;;;;;;4993123;28;20289;-71
2023/03/11 05:24:14;;;;;;;22.87;1.37;;;0.10;99.90;;;;;;4993259;28;20447;-72
2023/03/11 05:26:40;;;;;;;35.43;1.67;;;0.10;99.90;;;;;;4993643;28;20694;-72
2023/03/11 05:29:06;;;;;;;27.20;1.30;;;0.10;99.90;;;;;;4992926;28;20199;-71
2023/03/11 05:31:31;;;;;;;25.23;1.43;;;0.10;99.90;;;;;;4992099;28;20623;-72
2023/03/11 05:33:56;;;;;;;26.43;1.40;;;0.20;99.90;;;;;;4992802;28;20203;-72
2023/03/11 05:36:22;;;;;;;21.00;1.33;;;0.20;99.90;;;;;;4993212;28;20385;-72
2023/03/11 05:38:47;;;;;;;20.23;1.20;;;0.20;99.90;;;;;;4993220;28;20259;-72
2023/03/11 05:41:13;;;;;;;24.07;1.67;;;0.20;99.90;;;;;;4992664;28;20787;-74
2023/03/11 05:43:38;;;;;;;31.50;1.50;;;0.20;99.90;;;;;;4993217;28;20235;-70
2023/03/11 05:46:04;;;;;;;21.67;1.27;;;0.20;99.90;;;;;;4992716;28;20193;-71
2023/03/11 05:48:29;;;;;;;22.33;1.50;;;0.20;99.90;;;;;;4993188;28;20197;-72
2023/03/11 05:50:55;;;;;;;19.97;1.50;;;0.20;99.90;;;;;;4992309;28;20259;-70
2023/03/11 05:53:21;;;;;;;29.27;1.83;;;0.20;99.90;;;;;;4992899;28;20201;-71
2023/03/11 05:55:55;;;;;;;20.40;1.63;;;0.20;99.90;;;;;;4993052;28;20609;-71
2023/03/11 05:58:20;;;;;;;24.00;1.30;;;0.20;99.90;;;;;;4993002;28;20245;-71
2023/03/11 06:00:46;;;;;;;20.37;1.77;;;0.30;99.90;;;;;;4992417;28;20459;-72
2023/03/11 06:03:11;;;;;;;18.17;1.40;;;0.30;99.90;;;;;;4992257;28;20646;-71
2023/03/11 06:05:46;;;;;;;18.00;1.37;;;0.30;99.90;;;;;;4992869;28;20188;-71
2023/03/11 06:08:11;;;;;;;16.93;1.10;;;0.30;99.90;;;;;;4992269;28;20787;-71
2023/03/11 06:10:37;;;;;;;17.37;1.40;;;0.30;99.90;;;;;;4992531;28;20530;-71
2023/03/11 06:13:02;;;;;;;20.23;1.40;;;0.30;99.90;;;;;;4992121;28;20234;-70
2023/03/11 06:15:28;;;;;;;16.60;1.10;;;0.80;99.90;;;;;;4992645;28;20187;-71
2023/03/11 06:17:53;;;;;;;16.87;1.20;;;1.50;99.90;;;;;;4992237;28;20243;-72
2023/03/11 06:20:19;;;;;;;15.60;1.17;;;2.60;99.90;;;;;;4991035;28;20228;-69
2023/03/11 06:22:48;;;;;;;25.80;1.40;;;3.50;99.90;;;;;;4991096;28;20656;-70
2023/03/11 06:25:14;;;;;;;28.83;1.17;;;3.80;99.90;;;;;;4991796;28;20229;-71
2023/03/11 06:27:39;;;;;;;31.00;1.40;;;3.80;99.90;;;;;;4992628;28;20672;-71
2023/03/11 06:30:06;;;;;;;29.27;1.97;;;5.00;99.90;;;;;;4991893;28;20853;-71
2023/03/11 06:32:33;;;;;;;29.60;2.03;;;6.00;99.90;;;;;;4991727;28;20632;-71
2023/03/11 06:34:59;;;;;;;30.23;1.57;;;7.10;99.90;;;;;;4991941;28;20444;-69
2023/03/11 06:37:24;;;;;;;30.77;1.10;;;7.80;99.90;;;;;;4991777;28;20445;-69
2023/03/11 06:39:53;;;;;;;29.57;1.80;;;8.20;99.90;;;;;;4992612;28;20829;-69
2023/03/11 06:42:20;;;;;;;33.83;1.80;;;8.50;99.90;;;;;;4991347;28;20219;-72
2023/03/11 06:44:49;;;;;;;33.03;1.60;;;8.50;99.90;;;;;;4992105;28;20438;-72
2023/03/11 06:47:15;;;;;;;26.00;1.77;;;8.30;99.90;;;;;;4991421;28;20934;-70
2023/03/11 06:49:41;;;;;;;25.27;1.33;;;8.00;99.90;;;;;;4991847;28;20977;-71
2023/03/11 06:52:07;;;;;;;23.87;1.43;;;7.90;99.90;;;;;;4992153;28;20502;-69
2023/03/11 06:54:33;;;;;;;23.60;1.27;;;7.80;99.90;;;;;;4992757;28;20438;-71
2023/03/11 06:56:59;;;;;;;27.03;1.53;;;7.50;99.90;;;;;;4991845;28;20873;-69
2023/03/11 06:59:24;;;;;;;23.83;1.30;;;7.00;99.90;;;;;;4991702;28;20441;-70
2023/03/11 07:01:50;;;;;;;23.33;1.57;;;6.90;99.90;;;;;;4991452;28;20221;-69
2023/03/11 07:04:15;;;;;;;22.00;1.13;;;6.80;99.90;;;;;;4991558;28;20190;-69
2023/03/11 07:06:42;;;;;;;27.80;1.50;;;7.10;99.90;;;;;;4991644;28;20194;-70
2023/03/11 07:09:08;;;;;;;22.53;1.53;;;7.20;99.90;;;;;;4991155;28;20195;-70
2023/03/11 07:11:33;;;;;;;23.77;1.20;;;8.10;99.90;;;;;;4991214;28;20480;-70
2023/03/11 07:13:59;;;;;;;24.83;1.07;;;8.70;99.90;;;;;;4991083;28;20438;-69
2023/03/11 07:16:26;;;;;;;24.97;1.30;;;9.00;99.90;;;;;;4975839;28;20651;-69
2023/03/11 07:18:54;;;;;;;23.90;1.50;;;8.60;99.90;;;;;;4991407;28;20282;-70
2023/03/11 07:21:22;;;;;;;27.20;1.00;;;8.60;99.90;;;;;;5005420;28;20469;-69
2023/03/11 07:23:51;;;;;;;19.83;1.13;;;8.80;99.90;;;;;;4991407;28;20431;-69
2023/03/11 07:26:17;;;;;;;19.03;1.20;;;8.40;99.90;;;;;;4990167;28;20432;-69
2023/03/11 07:28:43;;;;;;;23.70;2.00;;;9.00;99.90;;;;;;4992909;28;20430;-70
2023/03/11 07:31:11;;;;;;;18.07;1.40;;;9.30;99.90;;;;;;4992679;28;20229;-70
2023/03/11 07:33:37;;;;;;;17.23;1.57;;;9.50;99.90;;;;;;4980544;28;20472;-70
2023/03/11 07:36:11;;;;;;;13.07;1.03;;;9.60;99.90;;;;;;4985150;28;20466;-71
2023/03/11 07:38:37;;;;;;;13.73;1.17;;;9.70;99.90;;;;;;4991171;28;20206;-71
2023/03/11 07:41:03;;;;;;;13.03;1.30;;;9.90;99.90;;;;;;4989979;28;20454;-72
2023/03/11 07:43:29;;;;;;;16.30;1.70;;;9.50;99.90;;;;;;4991130;28;20443;-72
2023/03/11 07:46:22;;;;;;;14.07;1.30;;;9.40;99.90;;;;;;4990793;28;20432;-73
2023/03/11 07:48:49;;;;;;;23.27;1.37;;;9.40;99.90;;;;;;4966982;28;20287;-73
2023/03/11 07:51:20;;;;;;;21.53;1.50;;;9.20;99.90;;;;;;4988561;28;20567;-71
2023/03/11 07:53:47;;;;;;;21.97;1.20;;;9.00;99.90;;;;;;4992008;28;20428;-72
2023/03/11 07:56:14;;;;;;;22.20;1.23;;;9.10;99.90;;;;;;4994997;28;20426;-72
2023/03/11 07:58:40;;;;;;;17.03;1.23;;;8.90;99.90;;;;;;4994914;28;20428;-72
2023/03/11 08:01:12;;;;;;;18.30;1.10;;;8.70;99.90;;;;;;4994425;28;20452;-72
2023/03/11 08:03:38;;;;;;;15.67;1.20;;;8.90;99.90;;;;;;4994798;28;20184;-72
2023/03/11 08:06:14;;;;;;;16.87;1.13;;;8.90;99.90;;;;;;4994557;28;20440;-71
2023/03/11 08:08:40;;;;;;;13.63;1.30;;;8.90;99.90;;;;;;4994751;28;20182;-73
2023/03/11 08:11:06;;;;;;;15.73;1.60;;;8.70;99.90;;;;;;4993881;28;20530;-72
2023/03/11 08:13:31;;;;;;;19.27;1.17;;;8.80;99.90;;;;;;4994604;28;20221;-72
2023/03/11 08:15:57;;;;;;;25.80;1.37;;;9.00;99.90;;;;;;4994826;28;20189;-72
2023/03/11 08:18:22;;;;;;;26.03;1.80;;;8.90;99.90;;;;;;4994297;28;20205;-72
2023/03/11 08:20:48;;;;;;;35.10;2.07;;;9.00;99.90;;;;;;4994147;28;20719;-72
2023/03/11 08:23:14;;;;;;;24.70;1.00;;;9.10;99.90;;;;;;4994126;28;20245;-73
2023/03/11 08:25:40;;;;;;;23.73;1.80;;;9.30;99.90;;;;;;4994850;28;20494;-72
2023/03/11 08:28:06;;;;;;;23.73;1.20;;;9.60;99.90;;;;;;4994016;28;20182;-71
2023/03/11 08:30:33;;;;;;;21.57;1.37;;;9.90;99.90;;;;;;4994012;28;20273;-72
2023/03/11 08:32:58;;;;;;;19.33;1.43;;;10.00;99.90;;;;;;4994171;28;20465;-71
2023/03/11 08:35:25;;;;;;;18.03;1.27;;;9.90;99.90;;;;;;4994155;28;20504;-72
2023/03/11 08:37:50;;;;;;;32.13;1.60;;;9.80;99.90;;;;;;4994276;28;20236;-72
2023/03/11 08:40:16;;;;;;;24.37;1.43;;;9.70;99.90;;;;;;4993726;28;20437;-73
2023/03/11 08:42:41;;;;;;;19.67;1.50;;;9.70;99.90;;;;;;4994139;28;20213;-73
2023/03/11 08:45:08;;;;;;;32.83;1.43;;;9.70;99.90;;;;;;4993872;28;20205;-72
2023/03/11 08:47:35;;;;;;;23.97;1.63;;;10.10;99.90;;;;;;4994200;28;20194;-72
2023/03/11 08:50:02;;;;;;;17.47;1.00;;;9.10;99.90;;;;;;4978898;28;20793;-73
2023/03/11 08:52:28;;;;;;;16.10;1.10;;;9.00;99.90;;;;;;4985895;28;20476;-72
2023/03/11 08:54:53;;;;;;;16.53;5.53;;;9.40;99.90;;;;;;4991214;28;20433;-72
2023/03/11 08:57:19;;;;;;;10.77;1.00;;;9.70;99.90;;;;;;4992433;28;20194;-72
2023/03/11 08:59:44;;;;;;;20.60;1.40;;;9.80;99.90;;;;;;4987432;28;20578;-72
2023/03/11 09:02:10;;;;;;;13.20;0.97;;;9.90;99.90;;;;;;4992027;28;20618;-72
2023/03/11 09:04:36;;;;;;;21.13;1.70;;;10.00;99.90;;;;;;4991607;28;20186;-72
2023/03/11 09:07:01;;;;;;;19.37;1.37;;;10.40;99.90;;;;;;4993382;28;20210;-72
2023/03/11 09:09:27;;;;;;;14.90;1.93;;;10.30;99.90;;;;;;4991996;28;20196;-72
2023/03/11 09:11:52;;;;;;;14.73;1.40;;;9.80;99.90;;;;;;4993513;28;20713;-73
2023/03/11 09:14:18;;;;;;;24.23;1.57;;;9.90;99.90;;;;;;4992034;28;20190;-73
2023/03/11 09:16:44;;;;;;;22.50;1.53;;;10.30;99.90;;;;;;4993209;28;20182;-70
2023/03/11 09:19:09;;;;;;;31.37;1.20;;;10.60;99.90;;;;;;4992104;28;20504;-69
2023/03/11 09:21:36;;;;;;;26.97;1.00;;;10.60;99.90;;;;;;4993583;28;20212;-70
2023/03/11 09:24:03;;;;;;;24.30;1.20;;;10.90;99.90;;;;;;4993146;28;20191;-70
2023/03/11 09:26:32;;;;;;;23.43;2.33;;;11.10;99.90;;;;;;4992757;28;20525;-69
2023/03/11 09:28:57;;;;;;;23.03;1.37;;;11.00;99.90;;;;;;4993295;28;20427;-70
2023/03/11 09:31:23;;;;;;;23.57;2.30;;;11.30;99.90;;;;;;4992140;28;20489;-71
2023/03/11 09:33:51;;;;;;;20.90;1.40;;;11.40;99.90;;;;;;4992908;28;20189;-70
2023/03/11 09:36:19;;;;;;;27.53;1.37;;;11.50;99.90;;;;;;4992994;28;20543;-70
2023/03/11 09:38:45;;;;;;;21.83;1.20;;;11.70;99.90;;;;;;4992955;28;20430;-70
2023/03/11 09:41:16;;;;;;;22.30;1.97;;;11.60;99.90;;;;;;4991738;28;20970;-70
2023/03/11 09:44:14;;;;;;;19.23;1.37;;;11.90;99.90;;;;;;4983674;28;20474;-71
2023/03/11 09:46:58;;;;;;;23.37;1.60;;;11.80;99.90;;;;;;4978795;28;20418;-70
2023/03/11 09:49:36;;;;;;;21.03;1.40;;;12.00;99.90;;;;;;4992581;28;20422;-70
2023/03/11 09:52:10;;;;;;;21.17;1.20;;;12.10;99.80;;;;;;4992375;28;20565;-70
2023/03/11 09:54:42;;;;;;;17.57;1.37;;;12.40;99.90;;;;;;4977867;28;20910;-71
2023/03/11 09:57:20;;;;;;;19.23;1.30;;;12.40;99.90;;;;;;4992986;28;20915;-70
2023/03/11 09:59:46;;;;;;;19.70;1.70;;;12.60;99.90;;;;;;4979874;28;20481;-70
2023/03/11 10:02:17;;;;;;;25.53;1.93;;;12.70;99.90;;;;;;4992226;28;20855;-70
2023/03/11 10:05:11;;;;;;;28.70;1.40;;;12.70;99.90;;;;;;4992496;28;20430;-70
2023/03/11 10:07:40;;;;;;;20.80;1.10;;;12.80;99.80;;;;;;4971890;28;20438;-70
2023/03/11 10:10:11;;;;;;;17.83;1.20;;;12.80;98.20;;;;;;4992513;28;20492;-70
2023/03/11 10:13:02;;;;;;;17.73;1.10;;;12.70;97.90;;;;;;4990430;28;20477;-71
2023/03/11 10:15:41;;;;;;;16.93;1.00;;;13.10;96.70;;;;;;4992196;28;20514;-71
2023/03/11 10:18:18;;;;;;;22.03;0.97;;;13.10;94.10;;;;;;4992011;28;20431;-71
2023/03/11 10:21:11;;;;;;;17.40;0.73;;;13.30;95.80;;;;;;4991516;28;20793;-70
2023/03/11 10:23:52;;;;;;;3.00;0.70;;;13.40;92.40;;;;;;4975270;28;20453;-71
2023/03/11 10:26:30;;;;;;;3.80;0.70;;;12.80;92.10;;;;;;4990890;28;20796;-71
2023/03/11 10:29:13;;;;;;;3.93;0.73;;;12.70;93.30;;;;;;4992203;28;20422;-71
2023/03/11 10:32:12;;;;;;;5.37;0.90;;;12.80;92.00;;;;;;4976769;28;20474;-71
2023/03/11 10:35:05;;;;;;;6.53;1.13;;;13.50;92.80;;;;;;4992147;28;20423;-71
2023/03/11 10:37:42;;;;;;;12.10;1.13;;;13.00;91.30;;;;;;4991510;28;20451;-71
2023/03/11 10:40:31;;;;;;;5.10;0.90;;;13.00;94.70;;;;;;4992172;28;20958;-71
2023/03/11 10:43:01;;;;;;;5.23;1.27;;;13.00;95.30;;;;;;4991721;28;20557;-70
2023/03/11 10:45:32;;;;;;;6.60;1.20;;;12.90;93.80;;;;;;4991614;28;20508;-71
2023/03/11 10:47:57;;;;;;;4.50;0.97;;;12.90;93.10;;;;;;4991631;28;20426;-71
2023/03/11 10:50:23;;;;;;;4.43;1.00;;;13.20;94.00;;;;;;4991112;28;20458;-72
2023/03/11 10:53:05;;;;;;;6.23;0.90;;;13.10;93.20;;;;;;4991392;28;20237;-70
2023/03/11 10:55:31;;;;;;;6.90;0.80;;;12.90;90.80;;;;;;4991627;28;20197;-71
2023/03/11 10:58:05;;;;;;;13.23;0.80;;;12.40;87.70;;;;;;4991506;28;20991;-71
2023/03/11 11:00:31;;;;;;;8.30;0.80;;;11.60;90.70;;;;;;4990924;28;20197;-71
2023/03/11 11:02:57;;;;;;;8.80;1.00;;;10.90;91.70;;;;;;4990057;28;20435;-70
2023/03/11 11:05:35;;;;;;;10.20;1.10;;;9.90;93.90;;;;;;4991203;28;20195;-71
2023/03/11 11:08:03;;;;;;;8.50;0.70;;;9.60;96.10;;;;;;4991285;28;20200;-70
2023/03/11 11:10:30;;;;;;;8.40;0.90;;;9.50;97.30;;;;;;4990639;28;20430;-70
2023/03/11 11:13:06;;;;;;;4.57;0.70;;;10.30;97.10;;;;;;4989809;28;20810;-70
2023/03/11 11:15:38;;;;;;;7.63;1.73;;;10.90;98.20;;;;;;4991207;28;20921;-71
2023/03/11 11:18:21;;;;;;;9.30;1.27;;;10.90;94.80;;;;;;4991222;28;20462;-71
2023/03/11 11:20:59;;;;;;;11.20;3.13;;;10.60;94.70;;;;;;4977666;28;20944;-71
2023/03/11 11:23:46;;;;;;;9.30;1.17;;;10.80;96.00;;;;;;4990804;28;20425;-69
2023/03/11 11:26:20;;;;;;;7.87;1.10;;;11.40;97.10;;;;;;4991442;28;20431;-71
2023/03/11 11:28:46;;;;;;;9.63;1.00;;;11.10;94.60;;;;;;4976569;28;20449;-72
2023/03/11 11:31:22;;;;;;;11.50;1.00;;;10.70;88.80;;;;;;5005845;28;21006;-72
2023/03/11 11:33:55;;;;;;;7.67;0.83;;;10.20;93.90;;;;;;4977312;28;20447;-71
2023/03/11 11:36:33;;;;;;;3.40;1.07;;;9.80;94.20;;;;;;4990796;28;20428;-71
2023/03/11 11:39:03;;;;;;;2.30;0.93;;;9.60;94.70;;;;;;4991069;28;20504;-69
2023/03/11 11:41:30;;;;;;;2.70;1.20;;;9.70;97.10;;;;;;4991225;28;20489;-70
2023/03/11 11:44:03;;;;;;;5.57;1.00;;;10.30;97.70;;;;;;4991533;28;20462;-70
2023/03/11 11:47:24;;;;;;;2.00;0.70;;;10.80;95.90;;;;;;4990550;28;20539;-71
2023/03/11 11:49:55;;;;;;;4.20;0.80;;;11.00;94.40;;;;;;4930352;29;20461;-73
2023/03/11 11:52:30;;;;;;;1.20;0.80;;;10.90;91.80;;;;;;4988296;28;20562;-74
2023/03/11 11:55:01;;;;;;;2.90;0.77;;;10.30;91.10;;;;;;4990948;28;20441;-74
2023/03/11 11:57:27;;;;;;;5.50;1.00;;;9.90;93.20;;;;;;4990848;28;20437;-73
2023/03/11 11:59:53;;;;;;;5.43;1.00;;;10.00;93.40;;;;;;4990604;28;20473;-71
2023/03/11 12:02:38;;;;;;;3.07;0.70;;;10.00;92.80;;;;;;4990192;28;20219;-69
2023/03/11 12:05:27;;;;;;;5.33;1.10;;;10.20;94.70;;;;;;4990515;28;20278;-71
2023/03/11 12:08:16;;;;;;;7.03;0.90;;;9.90;93.50;;;;;;4977814;28;20431;-70
2023/03/11 12:11:01;;;;;;;5.30;1.00;;;10.10;92.70;;;;;;4990368;28;20450;-71
2023/03/11 12:13:33;;;;;;;8.53;1.27;;;10.30;94.30;;;;;;4990479;28;20430;-71
2023/03/11 12:16:10;;;;;;;3.70;0.80;;;10.50;95.70;;;;;;4989456;28;20497;-71
2023/03/11 12:18:42;;;;;;;4.80;0.90;;;10.50;97.50;;;;;;4990474;28;20436;-71
2023/03/11 12:21:27;;;;;;;7.17;1.07;;;10.40;96.40;;;;;;4990213;28;20494;-71
2023/03/11 12:24:20;;;;;;;7.50;0.97;;;9.90;94.80;;;;;;4976867;28;20467;-73
2023/03/11 12:26:48;;;;;;;10.67;1.30;;;9.40;95.60;;;;;;4975955;28;20428;-70
2023/03/11 12:29:33;;;;;;;9.67;1.00;;;8.90;97.30;;;;;;4990702;28;20800;-69
2023/03/11 12:32:00;;;;;;;10.50;1.53;;;8.70;96.40;;;;;;4978572;28;20507;-70
2023/03/11 12:34:27;;;;;;;3.93;0.80;;;8.80;98.90;;;;;;4990213;28;20430;-71
2023/03/11 12:36:56;;;;;;;7.77;0.80;;;8.90;97.60;;;;;;4990596;28;20436;-71
2023/03/11 12:39:33;;;;;;;8.83;0.87;;;9.10;98.40;;;;;;4990477;28;20429;-69
2023/03/11 12:42:10;;;;;;;3.97;0.90;;;9.40;96.50;;;;;;4993821;28;20455;-71
2023/03/11 12:44:37;;;;;;;3.30;0.77;;;9.60;94.30;;;;;;4993809;28;20447;-73
2023/03/11 12:47:17;;;;;;;8.57;0.90;;;9.50;95.90;;;;;;4994123;28;20424;-72
2023/03/11 12:49:50;;;;;;;8.33;0.90;;;9.30;96.90;;;;;;4994013;28;20421;-70
2023/03/11 12:52:18;;;;;;;10.07;1.20;;;9.00;93.40;;;;;;4993970;28;21065;-71
2023/03/11 12:54:45;;;;;;;9.63;0.90;;;8.10;95.60;;;;;;4993955;28;20429;-70
2023/03/11 12:57:17;;;;;;;12.33;1.10;;;8.10;96.50;;;;;;4992298;28;20441;-73
2023/03/11 13:00:11;;;;;;;11.30;1.43;;;8.50;97.90;;;;;;4994711;28;20491;-71
2023/03/11 13:03:17;;;;;;;10.37;1.00;;;8.70;98.40;;;;;;4994334;28;20822;-72
2023/03/11 13:06:03;;;;;;;13.90;1.33;;;8.90;97.70;;;;;;4945324;28;20461;-73
2023/03/11 13:08:45;;;;;;;10.60;1.33;;;8.80;95.90;;;;;;4993961;28;20691;-72
2023/03/11 13:11:31;;;;;;;9.00;0.83;;;8.60;95.40;;;;;;4993492;28;20508;-72
2023/03/11 13:14:13;;;;;;;9.70;1.03;;;8.60;96.40;;;;;;4980652;28;20433;-72
2023/03/11 13:16:39;;;;;;;8.80;0.83;;;8.60;96.50;;;;;;4993003;28;20421;-71
2023/03/11 13:19:31;;;;;;;8.93;0.90;;;8.80;99.20;;;;;;4993842;28;20422;-70
2023/03/11 13:22:00;;;;;;;9.90;0.80;;;9.00;99.70;;;;;;4980942;28;20485;-72
2023/03/11 13:24:28;;;;;;;3.30;1.10;;;9.10;97.30;;;;;;4993227;28;20456;-70
2023/03/11 13:27:05;;;;;;;7.00;1.37;;;8.80;96.40;;;;;;4993454;28;20433;-72
2023/03/11 13:29:52;;;;;;;9.53;1.27;;;8.70;97.90;;;;;;4993270;28;20831;-70
2023/03/11 13:32:47;;;;;;;3.73;0.90;;;8.50;98.80;;;;;;4993525;28;20484;-71
2023/03/11 13:35:41;;;;;;;4.53;0.87;;;8.50;99.30;;;;;;4984898;28;21046;-72
2023/03/11 13:38:31;;;;;;;3.13;1.10;;;8.60;99.80;;;;;;4983061;28;20427;-72
2023/03/11 13:40:59;;;;;;;4.07;1.40;;;8.60;99.90;;;;;;4980008;28;20445;-71
2023/03/11 13:43:25;;;;;;;2.53;1.20;;;8.60;99.90;;;;;;4992971;28;20434;-71
2023/03/11 13:46:12;;;;;;;3.27;0.90;;;8.50;99.90;;;;;;4985487;28;20526;-71
2023/03/11 13:48:46;;;;;;;9.37;1.10;;;8.40;99.90;;;;;;4993083;28;20220;-72
2023/03/11 13:51:21;;;;;;;2.83;0.90;;;8.30;99.90;;;;;;4992141;28;20451;-71
2023/03/11 13:53:53;;;;;;;5.87;1.30;;;8.30;99.90;;;;;;4992680;28;20425;-71
2023/03/11 13:56:26;;;;;;;7.20;0.90;;;8.10;99.00;;;;;;4993508;28;20861;-70
2023/03/11 13:58:52;;;;;;;3.40;1.03;;;8.10;99.90;;;;;;4978468;28;20474;-73
2023/03/11 14:01:18;;;;;;;7.93;1.23;;;8.00;99.90;;;;;;4992686;28;20708;-72
2023/03/11 14:03:46;;;;;;;5.60;0.97;;;7.70;99.90;;;;;;4992639;28;20743;-70
2023/03/11 14:06:14;;;;;;;5.70;0.87;;;7.60;99.40;;;;;;4993216;28;20689;-72
2023/03/11 14:08:40;;;;;;;7.10;1.00;;;7.60;99.90;;;;;;4992611;28;20439;-72
2023/03/11 14:11:09;;;;;;;8.40;1.20;;;7.70;99.90;;;;;;4992584;28;20464;-71
2023/03/11 14:13:46;;;;;;;5.70;1.20;;;7.70;99.90;;;;;;4992339;28;20421;-72
2023/03/11 14:16:22;;;;;;;6.10;1.10;;;7.90;99.90;;;;;;4993081;28;20416;-73
2023/03/11 14:19:02;;;;;;;8.13;1.20;;;7.70;99.90;;;;;;4992323;28;20786;-71
2023/03/11 14:21:30;;;;;;;6.23;1.30;;;7.60;99.90;;;;;;4992317;28;20450;-71
2023/03/11 14:23:56;;;;;;;6.00;1.20;;;7.60;99.90;;;;;;4992706;28;20525;-71
2023/03/11 14:26:26;;;;;;;7.40;1.30;;;7.70;99.90;;;;;;4992774;28;20430;-71
2023/03/11 14:28:55;;;;;;;6.40;0.80;;;7.60;99.90;;;;;;4977477;28;20869;-71
2023/03/11 14:31:36;;;;;;;12.20;2.07;;;7.60;99.90;;;;;;4984202;28;20572;-71
2023/03/11 14:34:12;;;;;;;6.80;1.10;;;7.60;99.90;;;;;;4979861;28;20428;-71